createdAt,value
2023-01-09T00:00:45.944Z,-10.53
2023-01-09T00:03:13.140Z,-10.55
2023-01-09T00:05:40.054Z,-10.57
2023-01-09T00:08:07.810Z,-10.61
2023-01-09T00:10:34.591Z,-10.63
2023-01-09T00:13:01.348Z,-10.65
2023-01-09T00:15:28.144Z,-10.66
2023-01-09T00:17:55.036Z,-10.66
2023-01-09T00:20:22.031Z,-10.67
2023-01-09T00:22:48.770Z,-10.70
2023-01-09T00:25:15.722Z,-10.74
2023-01-09T00:27:42.566Z,-10.77
2023-01-09T00:30:10.378Z,-10.79
2023-01-09T00:32:37.282Z,-10.79
2023-01-09T00:35:04.536Z,-10.82
2023-01-09T00:37:31.285Z,-10.86
2023-01-09T00:39:58.120Z,-10.88
2023-01-09T00:42:26.887Z,-10.90
2023-01-09T00:44:59.115Z,-10.88
2023-01-09T00:47:35.639Z,-10.89
2023-01-09T00:50:10.847Z,-10.89
2023-01-09T00:52:38.020Z,-10.89
2023-01-09T00:55:05.530Z,-10.89
2023-01-09T00:57:32.636Z,-10.89
2023-01-09T00:59:59.413Z,-10.87
2023-01-09T01:02:26.191Z,-10.81
2023-01-09T01:05:12.042Z,-10.77
2023-01-09T01:07:38.846Z,-10.75
2023-01-09T01:10:17.064Z,-10.75
2023-01-09T01:12:44.051Z,-10.72
2023-01-09T01:15:11.485Z,-10.69
2023-01-09T01:17:38.880Z,-10.62
2023-01-09T01:20:06.892Z,-10.61
2023-01-09T01:22:33.739Z,-10.66
2023-01-09T01:25:00.927Z,-10.68
2023-01-09T01:27:28.450Z,-10.72
2023-01-09T01:29:55.559Z,-10.74
2023-01-09T01:32:22.544Z,-10.77
2023-01-09T01:34:49.308Z,-10.79
2023-01-09T01:37:16.040Z,-10.81
2023-01-09T01:39:42.983Z,-10.83
2023-01-09T01:42:12.914Z,-10.83
2023-01-09T01:45:06.663Z,-10.80
2023-01-09T01:48:01.574Z,-10.75
2023-01-09T01:50:39.064Z,-10.71
2023-01-09T01:53:10.196Z,-10.73
2023-01-09T01:55:39.535Z,-10.73
2023-01-09T01:58:07.930Z,-10.73
2023-01-09T02:00:37.752Z,-10.74
2023-01-09T02:03:04.660Z,-10.72
2023-01-09T02:05:31.490Z,-10.71
2023-01-09T02:07:58.415Z,-10.71
2023-01-09T02:10:25.705Z,-10.74
2023-01-09T02:12:52.629Z,-10.75
2023-01-09T02:15:19.497Z,-10.72
2023-01-09T02:18:20.728Z,-10.69
2023-01-09T02:21:42.063Z,-10.66
2023-01-09T02:24:10.963Z,-10.69
2023-01-09T02:26:53.281Z,-10.73
2023-01-09T02:29:54.211Z,-10.76
2023-01-09T02:32:27.171Z,-10.79
2023-01-09T02:34:57.456Z,-10.80
2023-01-09T02:37:42.601Z,-10.82
2023-01-09T02:40:43.926Z,-10.84
2023-01-09T02:43:10.649Z,-10.87
2023-01-09T02:45:37.587Z,-10.91
2023-01-09T02:48:04.637Z,-10.95
2023-01-09T02:51:02.939Z,-10.99
2023-01-09T02:53:58.894Z,-11.06
2023-01-09T02:56:43.834Z,-11.11
2023-01-09T02:59:33.741Z,-11.12
2023-01-09T03:02:06.704Z,-11.10
2023-01-09T03:04:36.616Z,-11.06
2023-01-09T03:07:24.662Z,-11.07
2023-01-09T03:09:52.794Z,-11.10
2023-01-09T03:12:23.370Z,-11.11
2023-01-09T03:14:52.458Z,-11.14
2023-01-09T03:17:23.220Z,-11.16
2023-01-09T03:19:50.451Z,-11.16
2023-01-09T03:22:17.289Z,-11.16
2023-01-09T03:24:44.131Z,-11.16
2023-01-09T03:27:10.983Z,-11.13
2023-01-09T03:29:37.964Z,-11.12
2023-01-09T03:32:04.882Z,-11.13
2023-01-09T03:34:31.707Z,-11.12
2023-01-09T03:36:58.464Z,-11.09
2023-01-09T03:39:25.291Z,-11.08
2023-01-09T03:41:52.165Z,-11.11
2023-01-09T03:44:18.892Z,-11.10
2023-01-09T03:46:45.765Z,-11.08
2023-01-09T03:49:14.125Z,-11.06
2023-01-09T03:51:40.945Z,-11.06
2023-01-09T03:54:08.179Z,-11.09
2023-01-09T03:56:35.472Z,-11.11
2023-01-09T03:59:02.296Z,-11.14
2023-01-09T04:01:29.174Z,-11.22
2023-01-09T04:03:56.064Z,-11.30
2023-01-09T04:06:22.825Z,-11.35
2023-01-09T04:08:49.673Z,-11.38
2023-01-09T04:11:18.400Z,-11.40
2023-01-09T04:13:45.331Z,-11.39
2023-01-09T04:16:12.299Z,-11.40
2023-01-09T04:18:39.222Z,-11.43
2023-01-09T04:21:06.040Z,-11.47
2023-01-09T04:23:32.841Z,-11.51
2023-01-09T04:25:59.623Z,-11.54
2023-01-09T04:28:26.432Z,-11.59
2023-01-09T04:30:53.313Z,-11.62
2023-01-09T04:33:20.254Z,-11.63
2023-01-09T04:35:46.979Z,-11.63
2023-01-09T04:38:13.773Z,-11.64
2023-01-09T04:40:40.520Z,-11.64
2023-01-09T04:43:07.210Z,-11.65
2023-01-09T04:45:33.977Z,-11.65
2023-01-09T04:48:00.723Z,-11.66
2023-01-09T04:50:27.469Z,-11.68
2023-01-09T04:52:54.281Z,-11.70
2023-01-09T04:55:21.042Z,-11.72
2023-01-09T04:57:47.913Z,-11.74
2023-01-09T05:00:15.529Z,-11.72
2023-01-09T05:02:42.354Z,-11.75
2023-01-09T05:05:11.558Z,-11.76
2023-01-09T05:07:39.252Z,-11.78
2023-01-09T05:10:06.886Z,-11.79
2023-01-09T05:12:34.874Z,-11.80
2023-01-09T05:15:02.756Z,-11.83
2023-01-09T05:17:29.611Z,-11.86
2023-01-09T05:19:56.524Z,-11.88
2023-01-09T05:22:23.277Z,-11.89
2023-01-09T05:24:50.116Z,-11.86
2023-01-09T05:27:16.981Z,-11.86
2023-01-09T05:29:43.839Z,-11.86
2023-01-09T05:32:10.716Z,-11.86
2023-01-09T05:34:37.578Z,-11.84
2023-01-09T05:37:04.638Z,-11.81
2023-01-09T05:39:31.354Z,-11.78
2023-01-09T05:41:58.070Z,-11.76
2023-01-09T05:44:24.811Z,-11.73
2023-01-09T05:46:51.607Z,-11.71
2023-01-09T05:49:18.452Z,-11.71
2023-01-09T05:51:45.346Z,-11.70
2023-01-09T05:54:12.073Z,-11.69
2023-01-09T05:56:38.768Z,-11.70
2023-01-09T05:59:05.624Z,-11.67
2023-01-09T06:01:32.540Z,-11.62
2023-01-09T06:03:59.475Z,-11.56
2023-01-09T06:06:26.460Z,-11.50
2023-01-09T06:08:53.764Z,-11.45
2023-01-09T06:11:20.515Z,-11.39
2023-01-09T06:13:47.316Z,-11.33
2023-01-09T06:16:14.244Z,-11.29
2023-01-09T06:18:41.273Z,-11.25
2023-01-09T06:21:08.738Z,-11.22
2023-01-09T06:23:35.714Z,-11.20
2023-01-09T06:26:02.420Z,-11.18
2023-01-09T06:28:29.290Z,-11.12
2023-01-09T06:30:56.163Z,-11.07
2023-01-09T06:33:23.161Z,-11.05
2023-01-09T06:35:49.965Z,-11.04
2023-01-09T06:38:16.776Z,-11.02
2023-01-09T06:40:43.577Z,-10.99
2023-01-09T06:43:10.314Z,-10.96
2023-01-09T06:45:37.050Z,-10.92
2023-01-09T06:48:03.876Z,-10.87
2023-01-09T06:50:30.677Z,-10.85
2023-01-09T06:52:57.484Z,-10.85
2023-01-09T06:55:26.425Z,-10.80
2023-01-09T06:57:53.584Z,-10.75
2023-01-09T07:00:20.739Z,-10.70
2023-01-09T07:02:47.481Z,-10.66
2023-01-09T07:05:14.304Z,-10.63
2023-01-09T07:07:41.411Z,-10.63
2023-01-09T07:10:09.016Z,-10.60
2023-01-09T07:12:36.269Z,-10.55
2023-01-09T07:15:03.315Z,-10.46
2023-01-09T07:17:30.021Z,-10.37
2023-01-09T07:19:56.815Z,-10.29
2023-01-09T07:22:23.533Z,-10.21
2023-01-09T07:24:50.389Z,-10.09
2023-01-09T07:27:17.192Z,-9.97
2023-01-09T07:29:43.887Z,-9.93
2023-01-09T07:32:10.624Z,-9.90
2023-01-09T07:34:37.835Z,-9.89
2023-01-09T07:37:05.235Z,-9.85
2023-01-09T07:39:31.960Z,-9.82
2023-01-09T07:41:58.732Z,-9.80
2023-01-09T07:44:26.086Z,-9.76
2023-01-09T07:46:53.403Z,-9.70
2023-01-09T07:49:20.282Z,-9.62
2023-01-09T07:51:48.419Z,-9.49
2023-01-09T07:54:15.212Z,-9.37
2023-01-09T07:56:42.586Z,-9.25
2023-01-09T07:59:09.378Z,-9.17
2023-01-09T08:01:36.335Z,-9.07
2023-01-09T08:04:03.429Z,-8.95
2023-01-09T08:06:30.579Z,-8.85
2023-01-09T08:08:57.935Z,-8.78
2023-01-09T08:11:25.232Z,-8.69
2023-01-09T08:13:52.132Z,-8.59
2023-01-09T08:16:19.095Z,-8.49
2023-01-09T08:18:46.240Z,-8.40
2023-01-09T08:21:14.508Z,-8.30
2023-01-09T08:23:41.360Z,-8.20
2023-01-09T08:26:08.217Z,-8.09
2023-01-09T08:28:35.043Z,-7.99
2023-01-09T08:31:01.817Z,-7.90
2023-01-09T08:33:29.316Z,-7.80
2023-01-09T08:35:56.250Z,-7.74
2023-01-09T08:38:23.224Z,-7.69
2023-01-09T08:40:50.046Z,-7.64
2023-01-09T08:43:35.709Z,-7.60
2023-01-09T08:46:21.406Z,-7.52
2023-01-09T08:48:48.548Z,-7.41
2023-01-09T08:51:15.547Z,-7.30
2023-01-09T08:53:42.469Z,-7.22
2023-01-09T08:56:10.413Z,-7.15
2023-01-09T08:58:37.239Z,-7.04
2023-01-09T09:01:07.769Z,-6.93
2023-01-09T09:03:34.479Z,-6.86
2023-01-09T09:06:01.401Z,-6.80
2023-01-09T09:08:28.585Z,-6.76
2023-01-09T09:10:57.424Z,-6.74
2023-01-09T09:13:24.410Z,-6.66
2023-01-09T09:15:51.415Z,-6.58
2023-01-09T09:18:18.328Z,-6.54
2023-01-09T09:20:45.444Z,-6.53
2023-01-09T09:23:12.400Z,-6.56
2023-01-09T09:25:39.567Z,-6.61
2023-01-09T09:28:07.061Z,-6.63
2023-01-09T09:30:34.537Z,-6.60
2023-01-09T09:33:04.413Z,-6.57
2023-01-09T09:35:33.783Z,-6.52
2023-01-09T09:38:04.844Z,-6.48
2023-01-09T09:40:35.636Z,-6.44
2023-01-09T09:43:45.769Z,-6.39
2023-01-09T09:46:49.467Z,-6.30
2023-01-09T09:49:22.361Z,-6.22
2023-01-09T09:52:14.378Z,-6.14
2023-01-09T09:54:43.239Z,-6.07
2023-01-09T09:57:13.090Z,-6.02
2023-01-09T09:59:39.898Z,-5.97
2023-01-09T10:02:09.810Z,-5.90
2023-01-09T12:08:52.871Z,-4.42
2023-01-09T12:11:22.292Z,-4.40
2023-01-09T12:13:55.364Z,-4.38
2023-01-09T12:16:28.074Z,-4.36
2023-01-09T12:18:56.844Z,-4.35
2023-01-09T12:21:32.030Z,-4.33
2023-01-09T12:24:14.623Z,-4.31
2023-01-09T12:27:01.132Z,-4.28
2023-01-09T12:30:04.284Z,-4.25
2023-01-09T12:32:52.655Z,-4.21
2023-01-09T12:35:28.554Z,-4.20
2023-01-09T12:38:25.207Z,-4.18
2023-01-09T12:41:10.398Z,-4.16
2023-01-09T12:43:57.145Z,-4.13
2023-01-09T12:46:26.048Z,-4.10
2023-01-09T12:49:23.616Z,-4.07
2023-01-09T12:52:01.199Z,-4.06
2023-01-09T12:54:39.436Z,-4.05
2023-01-09T12:57:12.228Z,-4.02
2023-01-09T13:00:05.418Z,-3.99
2023-01-09T13:02:32.424Z,-3.96
2023-01-09T13:05:06.718Z,-3.93
2023-01-09T13:07:37.502Z,-3.90
2023-01-09T13:10:36.865Z,-3.87
2023-01-09T13:13:06.982Z,-3.84
2023-01-09T13:15:37.379Z,-3.82
2023-01-09T13:18:05.264Z,-3.80
2023-01-09T13:20:43.890Z,-3.79
2023-01-09T13:23:22.119Z,-3.76
2023-01-09T13:25:51.100Z,-3.75
2023-01-09T13:28:18.523Z,-3.73
2023-01-09T13:30:51.004Z,-3.72
2023-01-09T13:33:19.365Z,-3.70
2023-01-09T13:35:54.509Z,-3.68
2023-01-09T13:38:22.959Z,-3.66
2023-01-09T13:41:28.865Z,-3.67
2023-01-09T13:44:00.162Z,-3.68
2023-01-09T13:51:36.014Z,-3.69
2023-01-09T13:54:02.831Z,-3.70
2023-01-09T13:56:29.696Z,-3.69
2023-01-09T13:58:58.143Z,-3.69
2023-01-09T14:01:26.492Z,-3.68
2023-01-09T14:08:42.292Z,-3.68
2023-01-09T14:11:09.065Z,-3.69
2023-01-09T14:13:40.933Z,-3.70
2023-01-09T14:16:13.606Z,-3.72
2023-01-09T14:18:46.754Z,-3.73
2023-01-09T14:21:13.317Z,-3.74
2023-01-09T14:23:52.763Z,-3.74
2023-01-09T14:26:22.925Z,-3.75
2023-01-09T14:28:49.916Z,-3.76
2023-01-09T14:31:30.153Z,-3.77
2023-01-09T14:34:38.953Z,-3.77
2023-01-09T14:37:08.377Z,-3.76
2023-01-09T14:39:37.858Z,-3.77
2023-01-09T14:42:08.772Z,-3.77
2023-01-09T14:44:55.809Z,-3.76
2023-01-09T14:47:36.097Z,-3.76
2023-01-09T14:50:07.226Z,-3.76
2023-01-09T14:52:45.652Z,-3.78
2023-01-09T14:55:34.116Z,-3.79
2023-01-09T15:02:50.950Z,-3.84
2023-01-09T15:05:20.508Z,-3.86
2023-01-09T15:07:53.400Z,-3.86
2023-01-09T15:10:25.692Z,-3.86
2023-01-09T15:12:53.937Z,-3.84
2023-01-09T15:15:20.930Z,-3.84
2023-01-09T15:18:10.023Z,-3.84
2023-01-09T15:20:36.660Z,-3.84
2023-01-09T15:23:05.037Z,-3.85
2023-01-09T15:25:38.894Z,-3.84
2023-01-09T15:28:39.223Z,-3.85
2023-01-09T15:31:14.685Z,-3.86
2023-01-09T15:33:41.765Z,-3.86
2023-01-09T15:36:15.185Z,-3.86
2023-01-09T15:38:41.870Z,-3.85
2023-01-09T15:41:10.426Z,-3.84
2023-01-09T15:43:41.276Z,-3.83
2023-01-09T15:46:10.344Z,-3.83
2023-01-09T15:48:37.340Z,-3.83
2023-01-09T15:51:12.890Z,-3.83
2023-01-09T15:53:40.027Z,-3.83
2023-01-09T15:56:18.844Z,-3.83
2023-01-09T15:58:47.376Z,-3.83
2023-01-09T18:15:48.196Z,-4.65
2023-01-09T18:18:15.849Z,-4.65
2023-01-09T18:20:43.246Z,-4.65
2023-01-09T18:23:10.765Z,-4.65
2023-01-09T18:25:41.468Z,-4.65
2023-01-09T18:28:09.059Z,-4.65
2023-01-09T18:30:36.209Z,-4.65
2023-01-09T18:33:03.678Z,-4.64
2023-01-09T18:35:32.867Z,-4.66
2023-01-09T18:37:59.605Z,-4.66
2023-01-09T18:40:27.272Z,-4.65
2023-01-09T18:42:54.932Z,-4.65
2023-01-09T18:45:21.591Z,-4.67
2023-01-09T18:47:48.220Z,-4.70
2023-01-09T18:50:15.268Z,-4.70
2023-01-09T18:52:42.526Z,-4.70
2023-01-09T18:55:09.691Z,-4.71
2023-01-09T18:57:36.945Z,-4.72
2023-01-09T19:00:04.482Z,-4.75
2023-01-09T19:02:31.462Z,-4.76
2023-01-09T19:04:59.085Z,-4.76
2023-01-09T19:07:26.257Z,-4.77
2023-01-09T19:09:53.285Z,-4.75
2023-01-09T19:12:20.125Z,-4.75
2023-01-09T19:14:47.785Z,-4.74
2023-01-09T19:17:15.061Z,-4.71
2023-01-09T19:19:41.921Z,-4.70
2023-01-09T19:22:09.138Z,-4.72
2023-01-09T19:24:37.030Z,-4.72
2023-01-09T19:27:04.264Z,-4.72
2023-01-09T19:29:31.390Z,-4.75
2023-01-09T19:31:59.044Z,-4.77
2023-01-09T19:34:30.755Z,-4.78
2023-01-09T19:36:57.575Z,-4.79
2023-01-09T19:39:24.343Z,-4.80
2023-01-09T19:41:51.273Z,-4.80
2023-01-09T19:44:20.452Z,-4.80
2023-01-09T19:46:47.138Z,-4.81
2023-01-09T19:49:13.834Z,-4.82
2023-01-09T19:51:42.027Z,-4.83
2023-01-09T19:54:09.774Z,-4.85
2023-01-09T19:56:40.344Z,-4.84
2023-01-09T19:59:07.615Z,-4.87
2023-01-09T20:01:36.253Z,-4.90
2023-01-09T20:04:07.015Z,-4.93
2023-01-09T20:06:38.644Z,-4.96
2023-01-09T20:09:05.272Z,-4.97
2023-01-09T20:11:32.351Z,-4.99
2023-01-09T20:13:59.773Z,-5.03
2023-01-09T20:16:28.400Z,-5.04
2023-01-09T20:18:57.696Z,-5.05
2023-01-09T20:21:25.909Z,-5.06
2023-01-09T20:23:54.318Z,-5.08
2023-01-09T20:26:22.388Z,-5.11
2023-01-09T20:28:49.558Z,-5.14
2023-01-09T20:31:17.747Z,-5.15
2023-01-09T20:33:45.511Z,-5.17
2023-01-09T20:36:12.227Z,-5.20
2023-01-09T20:38:39.719Z,-5.22
2023-01-09T20:41:21.988Z,-5.24
2023-01-09T20:43:55.382Z,-5.26
2023-01-09T20:46:25.298Z,-5.27
2023-01-09T20:48:55.381Z,-5.27
2023-01-09T20:51:22.262Z,-5.27
2023-01-09T20:53:55.244Z,-5.28
2023-01-09T20:56:23.114Z,-5.28
2023-01-09T20:58:50.376Z,-5.28
2023-01-09T21:01:17.266Z,-5.28
2023-01-09T21:03:44.434Z,-5.25
2023-01-09T21:06:14.793Z,-5.23
2023-01-09T21:08:42.672Z,-5.24
2023-01-09T21:11:09.806Z,-5.24
2023-01-09T21:13:37.705Z,-5.25
2023-01-09T21:16:12.702Z,-5.26
2023-01-09T21:18:39.863Z,-5.27
2023-01-09T21:21:08.589Z,-5.30
2023-01-09T21:23:35.302Z,-5.34
2023-01-09T21:26:08.552Z,-5.36
2023-01-09T21:28:45.052Z,-5.36
2023-01-09T21:31:13.288Z,-5.36
2023-01-09T21:33:40.176Z,-5.36
2023-01-09T21:36:07.531Z,-5.37
2023-01-09T21:38:34.290Z,-5.38
2023-01-09T21:41:21.081Z,-5.41
2023-01-09T21:44:14.365Z,-5.44
2023-01-09T21:46:57.063Z,-5.47
2023-01-09T21:49:25.468Z,-5.48
2023-01-09T21:51:55.424Z,-5.48
2023-01-09T21:54:23.389Z,-5.49
2023-01-09T21:56:53.955Z,-5.51
2023-01-09T21:59:23.595Z,-5.51
2023-01-09T22:01:50.722Z,-5.53
2023-01-09T22:04:19.547Z,-5.55
2023-01-09T22:06:49.478Z,-5.58
2023-01-09T22:09:16.367Z,-5.59
2023-01-09T22:11:43.241Z,-5.61
2023-01-09T22:14:14.536Z,-5.61
2023-01-09T22:16:44.619Z,-5.63
2023-01-09T22:19:12.070Z,-5.64
2023-01-09T22:21:38.773Z,-5.66
2023-01-09T22:24:06.252Z,-5.68
2023-01-09T22:26:33.503Z,-5.69
2023-01-09T22:29:00.572Z,-5.69
2023-01-09T22:31:32.167Z,-5.70
2023-01-09T22:33:59.649Z,-5.72
2023-01-09T22:36:28.548Z,-5.71
2023-01-09T22:38:58.987Z,-5.71
2023-01-09T22:41:26.462Z,-5.74
2023-01-09T22:43:53.678Z,-5.77
2023-01-09T22:46:20.609Z,-5.80
2023-01-09T22:48:47.877Z,-5.81
2023-01-09T22:51:16.364Z,-5.82
2023-01-09T22:53:43.352Z,-5.83
2023-01-09T22:56:13.448Z,-5.85
2023-01-09T22:58:40.233Z,-5.87
2023-01-09T23:01:08.953Z,-5.88
2023-01-09T23:03:35.796Z,-5.90
2023-01-09T23:06:05.062Z,-5.92
2023-01-09T23:08:31.639Z,-5.95
2023-01-09T23:10:58.371Z,-6.00
2023-01-09T23:13:26.239Z,-6.03
2023-01-09T23:15:54.050Z,-6.06
2023-01-09T23:18:21.067Z,-6.10
2023-01-09T23:20:58.866Z,-6.13
2023-01-09T23:23:26.569Z,-6.21
2023-01-09T23:25:55.613Z,-6.28
2023-01-09T23:28:22.509Z,-6.31
2023-01-09T23:30:49.233Z,-6.34
2023-01-09T23:33:20.568Z,-6.39
2023-01-09T23:35:49.266Z,-6.42
2023-01-09T23:38:16.487Z,-6.46
2023-01-09T23:40:43.275Z,-6.49
2023-01-09T23:43:11.122Z,-6.51
2023-01-09T23:45:40.035Z,-6.53
2023-01-09T23:48:07.549Z,-6.55
2023-01-09T23:50:35.821Z,-6.58
2023-01-09T23:53:02.707Z,-6.59
2023-01-09T23:55:30.129Z,-6.60
2023-01-09T23:57:57.158Z,-6.59
